Time;durP1;ratioP1;P1;durP2;ratioP2;P2;SDS_P1;SDS_P2;PMS_P1;PMS_P2;Temp;Humidity;BMP_temperature;BMP_pressure;BME280_temperature;BME280_humidity;BME280_pressure;Samples;Min_cycle;Max_cycle;Signal;HPM_P1;HPM_P2
2022/09/25 00:01:34;;;;;;;7.18;1.10;;;11.40;99.90;;;;;;4972158;28;20030;-74
2022/09/25 00:04:00;;;;;;;13.57;1.65;;;11.40;99.90;;;;;;4973117;28;20015;-74
2022/09/25 00:06:27;;;;;;;7.50;0.95;;;11.30;99.90;;;;;;4972831;28;20089;-74
2022/09/25 00:08:54;;;;;;;6.45;0.95;;;11.30;99.90;;;;;;4971876;28;20022;-74
2022/09/25 00:11:28;;;;;;;10.07;1.48;;;11.40;99.90;;;;;;4972328;28;20027;-75
2022/09/25 00:13:54;;;;;;;7.10;1.30;;;11.40;99.90;;;;;;4971735;28;20019;-74
2022/09/25 00:16:26;;;;;;;7.35;0.90;;;11.30;99.90;;;;;;4971738;28;20050;-74
2022/09/25 00:21:36;;;;;;;6.57;0.88;;;11.30;99.90;;;;;;4971575;28;20057;-74
2022/09/25 00:24:05;;;;;;;9.30;1.42;;;11.30;99.90;;;;;;4972650;28;20030;-74
2022/09/25 00:26:33;;;;;;;7.07;1.33;;;11.20;99.90;;;;;;4971960;28;20541;-74
2022/09/25 00:29:00;;;;;;;4.40;0.85;;;11.20;99.90;;;;;;4971730;28;20039;-74
2022/09/25 00:31:26;;;;;;;9.15;0.80;;;11.10;99.90;;;;;;4956610;28;20022;-74
2022/09/25 00:33:53;;;;;;;6.15;0.82;;;11.10;99.90;;;;;;4972315;28;20026;-74
2022/09/25 00:36:19;;;;;;;6.07;1.17;;;11.10;99.90;;;;;;4972171;28;20031;-74
2022/09/25 00:38:47;;;;;;;8.13;1.15;;;11.10;99.90;;;;;;4972383;28;20098;-74
2022/09/25 00:41:14;;;;;;;8.52;1.13;;;11.10;99.90;;;;;;4971200;28;20042;-75
2022/09/25 00:43:47;;;;;;;5.22;1.30;;;11.10;99.90;;;;;;4972058;28;20031;-74
2022/09/25 00:46:27;;;;;;;8.80;1.58;;;11.00;99.90;;;;;;4971931;28;20375;-74
2022/09/25 00:48:56;;;;;;;3.63;1.23;;;11.00;99.90;;;;;;4972596;28;20025;-74
2022/09/25 00:51:28;;;;;;;8.65;2.10;;;10.90;99.90;;;;;;4971698;28;20034;-74
2022/09/25 00:54:00;;;;;;;8.10;2.35;;;10.90;99.90;;;;;;4972708;28;20023;-74
2022/09/25 00:56:28;;;;;;;11.93;2.33;;;10.90;99.90;;;;;;4974515;28;20114;-74
2022/09/25 00:58:54;;;;;;;9.18;2.13;;;10.80;99.90;;;;;;4975345;28;20073;-74
2022/09/25 01:01:21;;;;;;;5.68;2.22;;;10.80;99.90;;;;;;4975070;28;20475;-74
2022/09/25 01:03:46;;;;;;;7.18;2.17;;;10.80;99.90;;;;;;4976322;28;20027;-74
2022/09/25 01:06:14;;;;;;;8.45;2.90;;;10.80;99.90;;;;;;4974515;28;20068;-74
2022/09/25 01:08:40;;;;;;;9.27;2.30;;;10.80;99.90;;;;;;4976388;28;20064;-74
2022/09/25 01:11:06;;;;;;;7.50;2.40;;;10.70;99.90;;;;;;4975871;28;20387;-74
2022/09/25 01:13:32;;;;;;;8.65;3.17;;;10.70;99.90;;;;;;4974952;28;20034;-74
2022/09/25 01:16:27;;;;;;;5.47;2.92;;;10.70;99.90;;;;;;4974771;28;20073;-74
2022/09/25 01:19:46;;;;;;;8.02;2.78;;;10.70;99.90;;;;;;4974717;28;20058;-74
2022/09/25 01:22:25;;;;;;;11.35;2.28;;;10.60;99.90;;;;;;4965476;28;20050;-74
2022/09/25 01:25:10;;;;;;;11.88;2.95;;;10.50;99.90;;;;;;4975568;28;20540;-74
2022/09/25 01:28:05;;;;;;;5.00;2.35;;;10.50;99.90;;;;;;4975739;28;20426;-74
2022/09/25 01:30:35;;;;;;;11.48;3.05;;;10.50;99.90;;;;;;4974208;28;20384;-73
2022/09/25 01:33:32;;;;;;;8.65;2.75;;;10.40;99.90;;;;;;4956483;28;20527;-74
2022/09/25 01:36:08;;;;;;;9.85;3.00;;;10.30;99.90;;;;;;4955964;28;20411;-74
2022/09/25 01:38:48;;;;;;;7.35;2.97;;;10.30;99.90;;;;;;4956413;29;20049;-74
2022/09/25 01:41:36;;;;;;;4.85;2.47;;;10.30;99.90;;;;;;4968374;28;20050;-74
2022/09/25 01:44:27;;;;;;;12.73;2.40;;;10.30;99.90;;;;;;4974734;28;20650;-74
2022/09/25 01:46:56;;;;;;;9.90;2.75;;;10.20;99.90;;;;;;4975443;28;20030;-74
2022/09/25 01:49:29;;;;;;;7.90;2.50;;;10.20;99.90;;;;;;4990232;28;20039;-74
2022/09/25 01:51:57;;;;;;;11.45;3.75;;;10.20;99.90;;;;;;4956434;29;20027;-74
2022/09/25 01:54:33;;;;;;;8.50;3.50;;;10.10;99.90;;;;;;4955689;29;20038;-74
2022/09/25 01:57:08;;;;;;;6.97;3.20;;;10.10;99.90;;;;;;4968475;28;20410;-74
2022/09/25 01:59:36;;;;;;;9.25;3.42;;;10.10;99.90;;;;;;4974244;28;20023;-74
2022/09/25 02:02:05;;;;;;;8.75;3.60;;;10.10;99.90;;;;;;4975529;28;20058;-74
2022/09/25 02:04:38;;;;;;;7.78;3.42;;;10.00;99.90;;;;;;4974497;28;20078;-74
2022/09/25 02:07:08;;;;;;;9.00;3.42;;;10.00;99.90;;;;;;4988231;28;20038;-74
2022/09/25 02:09:46;;;;;;;11.77;3.58;;;9.90;99.90;;;;;;4974840;28;20102;-74
2022/09/25 02:12:21;;;;;;;9.55;3.10;;;9.90;99.90;;;;;;4974770;28;20038;-74
2022/09/25 02:14:58;;;;;;;13.43;3.70;;;9.90;99.90;;;;;;4974231;28;20031;-74
2022/09/25 02:20:41;;;;;;;10.85;3.83;;;9.70;99.90;;;;;;4971280;28;20484;-74
2022/09/25 02:23:22;;;;;;;13.18;3.58;;;9.60;99.90;;;;;;4974865;28;20023;-74
2022/09/25 02:26:13;;;;;;;11.02;4.22;;;9.50;99.90;;;;;;4974575;28;20594;-74
2022/09/25 02:28:39;;;;;;;12.23;3.72;;;9.50;99.90;;;;;;4973954;28;20031;-74
2022/09/25 02:31:08;;;;;;;8.15;3.40;;;9.40;99.90;;;;;;4974565;28;20026;-74
2022/09/25 02:33:34;;;;;;;6.35;3.20;;;9.30;99.90;;;;;;4974637;28;20418;-74
2022/09/25 02:36:02;;;;;;;12.55;3.50;;;9.20;99.90;;;;;;4973193;28;20058;-74
2022/09/25 02:38:30;;;;;;;14.55;3.97;;;9.20;99.90;;;;;;4989111;28;20908;-74
2022/09/25 02:41:07;;;;;;;12.20;3.70;;;9.10;99.90;;;;;;4974408;28;20058;-74
2022/09/25 02:44:09;;;;;;;18.00;4.05;;;9.10;99.90;;;;;;4973696;28;20027;-74
2022/09/25 02:47:03;;;;;;;14.73;4.07;;;9.10;99.90;;;;;;4974018;28;20452;-74
2022/09/25 02:49:50;;;;;;;10.25;3.75;;;9.00;99.90;;;;;;4962204;28;20039;-74
2022/09/25 02:52:35;;;;;;;12.95;3.95;;;8.90;99.90;;;;;;4974203;28;20026;-74
2022/09/25 02:55:31;;;;;;;13.25;4.00;;;8.90;99.90;;;;;;4973925;28;20586;-73
2022/09/25 02:58:14;;;;;;;4.95;2.53;;;8.80;99.90;;;;;;4958232;28;20399;-74
2022/09/25 03:00:41;;;;;;;;;;;8.80;99.90;;;;;;4973381;28;20498;-74
2022/09/25 03:03:10;;;;;;;9.68;2.53;;;8.70;99.90;;;;;;4989099;28;19913;-74
2022/09/25 03:05:37;;;;;;;12.38;2.88;;;8.60;99.90;;;;;;4987930;28;20023;-74
2022/09/25 03:10:47;;;;;;;7.65;3.30;;;8.60;99.90;;;;;;4973280;28;20051;-73
2022/09/25 03:13:13;;;;;;;7.78;3.28;;;8.50;99.90;;;;;;4972095;28;20031;-74
2022/09/25 03:15:43;;;;;;;5.30;2.45;;;8.50;99.90;;;;;;4973667;28;20027;-74
2022/09/25 03:18:10;;;;;;;8.15;3.00;;;8.40;99.90;;;;;;4973495;28;20537;-74
2022/09/25 03:20:36;;;;;;;10.45;3.05;;;8.40;99.90;;;;;;4972123;28;20051;-74
2022/09/25 03:23:01;;;;;;;9.38;3.28;;;8.30;99.90;;;;;;4972824;28;20108;-74
2022/09/25 03:25:26;;;;;;;6.25;2.72;;;8.30;99.90;;;;;;4972368;28;20034;-74
2022/09/25 03:27:52;;;;;;;7.80;3.60;;;8.20;99.90;;;;;;4974001;28;20356;-74
2022/09/25 03:30:17;;;;;;;7.70;3.33;;;8.20;99.90;;;;;;4973020;28;20534;-74
2022/09/25 03:32:43;;;;;;;13.48;3.97;;;8.20;99.90;;;;;;4973351;28;20101;-74
2022/09/25 03:35:09;;;;;;;12.10;3.53;;;8.10;99.90;;;;;;4973103;28;20372;-74
2022/09/25 03:37:34;;;;;;;11.15;3.63;;;8.10;99.90;;;;;;4972938;28;20501;-74
2022/09/25 03:40:00;;;;;;;34.08;2.28;;;8.10;99.90;;;;;;4972416;28;20023;-74
2022/09/25 03:42:27;;;;;;;116.05;4.65;;;8.10;99.90;;;;;;4972859;28;20058;-74
2022/09/25 03:44:52;;;;;;;13.40;3.70;;;8.00;99.90;;;;;;4972291;28;20117;-73
2022/09/25 03:47:18;;;;;;;6.75;3.72;;;8.00;99.90;;;;;;4971692;28;20431;-74
2022/09/25 03:49:43;;;;;;;12.45;5.07;;;8.00;99.90;;;;;;4973256;28;20097;-74
2022/09/25 03:52:11;;;;;;;10.90;4.22;;;7.90;99.90;;;;;;4972945;28;20455;-74
2022/09/25 03:54:37;;;;;;;7.10;3.92;;;7.80;99.90;;;;;;4972374;28;20027;-73
2022/09/25 03:57:02;;;;;;;5.47;3.38;;;7.80;99.90;;;;;;4973041;28;20066;-74
2022/09/25 03:59:28;;;;;;;10.68;3.78;;;7.80;99.90;;;;;;4971418;28;20391;-73
2022/09/25 04:01:54;;;;;;;9.93;3.20;;;7.80;99.90;;;;;;4973962;28;20477;-74
2022/09/25 04:04:20;;;;;;;6.85;3.22;;;7.70;99.90;;;;;;4972541;28;20475;-74
2022/09/25 04:06:45;;;;;;;13.18;3.70;;;7.70;99.90;;;;;;4972815;28;20033;-74
2022/09/25 04:09:11;;;;;;;10.50;3.90;;;7.70;99.90;;;;;;4969626;28;20042;-74
2022/09/25 04:11:37;;;;;;;10.30;3.85;;;7.70;99.90;;;;;;4972770;28;20102;-74
2022/09/25 04:14:03;;;;;;;7.60;3.50;;;7.60;99.90;;;;;;4972142;28;20116;-74
2022/09/25 04:16:30;;;;;;;11.18;3.67;;;7.60;99.90;;;;;;4971155;28;20053;-74
2022/09/25 04:18:56;;;;;;;9.05;3.55;;;7.60;99.90;;;;;;4972535;28;20375;-74
2022/09/25 04:21:22;;;;;;;20.45;2.88;;;7.60;99.90;;;;;;4971879;28;20061;-74
2022/09/25 04:26:32;;;;;;;29.80;2.97;;;7.60;99.90;;;;;;4972158;28;20077;-74
2022/09/25 04:29:00;;;;;;;62.92;3.30;;;7.60;99.90;;;;;;4971457;28;20054;-74
2022/09/25 04:31:27;;;;;;;27.85;2.78;;;7.60;99.90;;;;;;4971659;28;20026;-74
2022/09/25 04:33:52;;;;;;;33.05;2.35;;;7.60;99.90;;;;;;4972253;28;20055;-74
2022/09/25 04:36:18;;;;;;;31.38;2.40;;;7.60;99.90;;;;;;4971838;28;20038;-74
2022/09/25 04:38:43;;;;;;;19.33;1.33;;;7.50;99.90;;;;;;4971498;28;20081;-74
2022/09/25 04:41:10;;;;;;;4.18;1.10;;;7.50;99.90;;;;;;4970945;28;20042;-74
2022/09/25 04:43:35;;;;;;;24.92;1.77;;;7.40;99.90;;;;;;4972168;28;20565;-74
2022/09/25 04:46:02;;;;;;;26.17;1.10;;;7.40;99.90;;;;;;4970800;28;20019;-74
2022/09/25 04:48:29;;;;;;;14.20;0.95;;;7.30;99.90;;;;;;4971133;28;20027;-74
2022/09/25 04:50:54;;;;;;;10.25;0.90;;;7.30;99.90;;;;;;4972191;28;20023;-74
2022/09/25 04:53:20;;;;;;;6.32;0.93;;;7.30;99.90;;;;;;4970010;28;20042;-74
2022/09/25 04:55:46;;;;;;;17.45;1.77;;;7.20;99.90;;;;;;4971271;28;20015;-74
2022/09/25 04:58:12;;;;;;;17.70;2.03;;;7.20;99.90;;;;;;4971258;28;20042;-74
2022/09/25 05:00:39;;;;;;;19.52;1.70;;;7.20;99.90;;;;;;4970021;28;20491;-74
2022/09/25 05:03:05;;;;;;;31.02;2.75;;;7.30;99.90;;;;;;4971829;28;20073;-74
2022/09/25 05:05:31;;;;;;;19.90;1.83;;;7.30;99.90;;;;;;4970687;28;20043;-74
2022/09/25 05:07:58;;;;;;;17.88;1.63;;;7.30;99.90;;;;;;4986872;28;20065;-74
2022/09/25 05:10:27;;;;;;;20.23;1.45;;;7.30;99.90;;;;;;4971519;28;20467;-74
2022/09/25 05:12:57;;;;;;;16.45;1.38;;;7.30;99.90;;;;;;4972097;28;20019;-74
2022/09/25 05:15:23;;;;;;;5.53;1.40;;;7.30;99.90;;;;;;4970706;28;20027;-74
2022/09/25 05:17:51;;;;;;;15.02;2.65;;;7.30;99.90;;;;;;4971082;28;20043;-74
2022/09/25 05:20:16;;;;;;;5.70;1.15;;;7.30;99.90;;;;;;4971077;28;20053;-74
2022/09/25 05:22:42;;;;;;;3.35;0.90;;;7.30;99.90;;;;;;4972053;28;20102;-73
2022/09/25 05:25:08;;;;;;;2.65;0.60;;;7.20;99.90;;;;;;4971878;28;20023;-74
2022/09/25 05:27:34;;;;;;;9.68;1.15;;;7.20;99.90;;;;;;4971604;28;20438;-74
2022/09/25 05:30:00;;;;;;;18.05;1.60;;;7.10;99.90;;;;;;4971277;28;20026;-73
2022/09/25 05:32:25;;;;;;;15.52;1.60;;;7.10;99.90;;;;;;4969488;28;20069;-73
2022/09/25 05:34:51;;;;;;;20.88;1.90;;;7.10;99.90;;;;;;4971884;28;20426;-74
2022/09/25 05:37:17;;;;;;;7.13;1.58;;;7.00;99.90;;;;;;4971283;28;20039;-74
2022/09/25 05:39:43;;;;;;;17.60;1.65;;;7.10;99.90;;;;;;4972049;28;20061;-74
2022/09/25 05:42:08;;;;;;;19.98;2.03;;;7.00;99.90;;;;;;4973570;28;20470;-73
2022/09/25 05:44:34;;;;;;;6.22;1.70;;;7.10;99.90;;;;;;4974612;28;20027;-74
2022/09/25 05:46:59;;;;;;;11.20;1.70;;;7.10;99.90;;;;;;4974387;28;20110;-74
2022/09/25 05:49:25;;;;;;;10.27;1.52;;;7.10;99.90;;;;;;4974942;28;20105;-74
2022/09/25 05:51:50;;;;;;;5.40;1.63;;;7.10;99.90;;;;;;4975499;28;20081;-73
2022/09/25 05:54:16;;;;;;;6.22;1.63;;;7.10;99.90;;;;;;4974896;28;20023;-73
2022/09/25 05:56:41;;;;;;;5.53;2.30;;;7.10;99.90;;;;;;4974901;28;20035;-74
2022/09/25 05:59:07;;;;;;;2.95;2.05;;;7.20;99.90;;;;;;4974474;28;20027;-74
2022/09/25 06:01:32;;;;;;;6.60;2.42;;;7.20;99.90;;;;;;4974127;28;20026;-74
2022/09/25 06:03:58;;;;;;;4.88;2.50;;;7.20;99.90;;;;;;4974056;28;20033;-74
2022/09/25 06:06:23;;;;;;;4.88;2.35;;;7.20;99.90;;;;;;4972865;28;20105;-74
2022/09/25 06:08:49;;;;;;;4.63;2.72;;;7.20;99.90;;;;;;4974369;28;20089;-74
2022/09/25 06:11:14;;;;;;;4.53;1.90;;;7.30;99.90;;;;;;4974375;28;20045;-74
2022/09/25 06:13:44;;;;;;;5.47;1.70;;;7.20;99.90;;;;;;4973638;28;20030;-74
2022/09/25 06:16:18;;;;;;;3.03;1.20;;;7.30;99.90;;;;;;4972604;28;20126;-74
2022/09/25 06:18:45;;;;;;;5.85;1.60;;;7.30;99.90;;;;;;4974622;28;20018;-74
2022/09/25 06:21:10;;;;;;;2.60;1.63;;;7.30;99.90;;;;;;4972679;28;20495;-74
2022/09/25 06:23:36;;;;;;;3.90;1.67;;;7.30;99.90;;;;;;4972275;28;20041;-74
2022/09/25 06:26:03;;;;;;;4.47;1.15;;;7.30;99.90;;;;;;4972359;28;20038;-74
2022/09/25 06:28:29;;;;;;;6.00;1.42;;;7.40;99.90;;;;;;4972119;28;20034;-74
2022/09/25 06:30:58;;;;;;;4.80;1.67;;;7.40;99.90;;;;;;4971875;28;20467;-74
2022/09/25 06:33:23;;;;;;;4.53;1.77;;;7.50;99.90;;;;;;4972693;28;20027;-74
2022/09/25 06:35:49;;;;;;;3.72;2.35;;;7.50;99.90;;;;;;4973605;28;20403;-74
2022/09/25 06:38:15;;;;;;;7.07;2.40;;;7.60;99.90;;;;;;4974219;28;20043;-74
2022/09/25 06:40:41;;;;;;;5.63;2.90;;;7.60;99.90;;;;;;4973455;28;20034;-74
2022/09/25 06:43:10;;;;;;;5.93;3.13;;;7.70;99.90;;;;;;4974535;28;20031;-74
2022/09/25 06:45:38;;;;;;;5.95;2.85;;;7.80;99.90;;;;;;4974261;28;20054;-74
2022/09/25 06:48:09;;;;;;;6.50;3.53;;;7.90;99.90;;;;;;4973508;28;20396;-74
2022/09/25 06:50:54;;;;;;;8.13;4.28;;;8.00;99.90;;;;;;4972895;28;20034;-74
2022/09/25 06:53:21;;;;;;;5.75;3.83;;;8.20;99.90;;;;;;4973725;28;20125;-74
2022/09/25 06:55:46;;;;;;;5.80;4.47;;;8.20;99.90;;;;;;4988179;28;20030;-74
2022/09/25 06:58:15;;;;;;;7.15;3.90;;;8.40;99.90;;;;;;4973696;28;20522;-74
2022/09/25 07:00:45;;;;;;;6.38;4.60;;;8.50;99.90;;;;;;4973207;28;20026;-74
2022/09/25 07:05:58;;;;;;;10.63;8.15;;;8.80;99.90;;;;;;4973784;28;20093;-74
2022/09/25 07:08:23;;;;;;;31.80;24.90;;;8.90;99.90;;;;;;4973561;28;20033;-74
2022/09/25 07:10:50;;;;;;;24.67;19.10;;;9.10;99.90;;;;;;4972964;28;20396;-74
2022/09/25 07:13:17;;;;;;;16.30;13.25;;;9.30;99.90;;;;;;4972657;28;20031;-74
2022/09/25 07:15:50;;;;;;;16.05;12.07;;;9.40;99.90;;;;;;4972947;28;20031;-74
2022/09/25 07:18:15;;;;;;;;;;;9.60;99.90;;;;;;4973520;28;20121;-74
2022/09/25 07:20:41;;;;;;;13.15;10.27;;;9.60;99.90;;;;;;4973454;28;20017;-74
2022/09/25 07:23:06;;;;;;;12.07;9.77;;;9.70;99.90;;;;;;4988824;28;20053;-74
2022/09/25 07:25:32;;;;;;;12.63;9.40;;;9.90;99.90;;;;;;4972187;28;20039;-75
2022/09/25 07:27:57;;;;;;;12.38;8.95;;;10.00;99.90;;;;;;4973781;28;20029;-74
2022/09/25 07:30:26;;;;;;;11.65;8.93;;;10.20;99.90;;;;;;4972483;28;20034;-74
2022/09/25 07:32:52;;;;;;;10.82;9.73;;;10.30;99.90;;;;;;4973008;28;20054;-75
2022/09/25 07:35:17;;;;;;;15.32;11.30;;;10.40;99.90;;;;;;4973159;28;20070;-75
2022/09/25 07:37:43;;;;;;;12.68;10.57;;;10.60;99.90;;;;;;4972644;28;20446;-75
2022/09/25 07:40:12;;;;;;;13.10;9.43;;;10.70;99.90;;;;;;4987072;28;20031;-75
2022/09/25 07:42:38;;;;;;;14.30;9.73;;;10.90;99.90;;;;;;4971647;28;20479;-74
2022/09/25 07:45:03;;;;;;;13.18;8.15;;;11.00;99.90;;;;;;4973266;28;20035;-75
2022/09/25 07:47:29;;;;;;;9.98;7.10;;;11.20;99.90;;;;;;4972744;28;20033;-75
2022/09/25 07:49:54;;;;;;;12.13;6.50;;;11.30;99.90;;;;;;4973213;28;20104;-75
2022/09/25 07:52:20;;;;;;;8.38;5.32;;;11.50;99.90;;;;;;4972036;28;20027;-75
2022/09/25 07:54:45;;;;;;;9.05;4.35;;;11.60;99.90;;;;;;4973492;28;20461;-74
2022/09/25 07:57:12;;;;;;;8.93;3.22;;;11.80;99.90;;;;;;4971891;28;20057;-75
2022/09/25 07:59:37;;;;;;;11.70;3.03;;;11.90;99.90;;;;;;4973089;28;20041;-75
2022/09/25 08:02:04;;;;;;;6.72;2.55;;;12.10;99.90;;;;;;4972586;28;20118;-74
2022/09/25 08:04:29;;;;;;;7.72;2.40;;;12.20;99.90;;;;;;4972075;28;20523;-75
2022/09/25 08:06:58;;;;;;;6.53;1.67;;;12.30;99.90;;;;;;4972136;28;20102;-74
2022/09/25 08:09:23;;;;;;;7.50;1.60;;;12.50;99.90;;;;;;4972410;28;20423;-75
2022/09/25 08:11:49;;;;;;;5.97;1.52;;;12.60;99.90;;;;;;4971972;28;20050;-75
2022/09/25 08:14:14;;;;;;;7.25;1.40;;;12.70;99.90;;;;;;4972581;28;20035;-75
2022/09/25 08:16:41;;;;;;;6.50;0.82;;;12.90;99.90;;;;;;4972126;28;20090;-75
2022/09/25 08:19:07;;;;;;;5.47;1.27;;;13.00;99.90;;;;;;4972690;28;20213;-75
2022/09/25 08:21:33;;;;;;;6.10;0.98;;;13.10;99.90;;;;;;4971945;28;20137;-75
2022/09/25 08:23:59;;;;;;;6.03;0.90;;;13.30;99.90;;;;;;4972501;28;20030;-75
2022/09/25 08:26:27;;;;;;;3.25;0.73;;;13.40;99.90;;;;;;4971546;28;20026;-75
2022/09/25 08:28:52;;;;;;;2.50;0.57;;;13.50;99.90;;;;;;4972648;28;20022;-75
2022/09/25 08:31:18;;;;;;;4.47;0.60;;;13.60;99.90;;;;;;4971973;28;20038;-75
2022/09/25 08:33:48;;;;;;;3.85;0.57;;;13.70;99.90;;;;;;4972499;28;20030;-74
2022/09/25 08:36:15;;;;;;;4.32;0.55;;;13.90;99.90;;;;;;4972313;28;20027;-75
2022/09/25 08:38:40;;;;;;;6.05;0.50;;;13.90;99.90;;;;;;4971488;28;20034;-75
2022/09/25 08:41:20;;;;;;;8.40;0.80;;;14.00;99.90;;;;;;4997281;28;20022;-75
2022/09/25 08:44:07;;;;;;;2.42;0.50;;;14.10;99.90;;;;;;4971640;28;20498;-75
2022/09/25 08:49:33;;;;;;;8.85;0.80;;;14.30;99.90;;;;;;4971188;28;20042;-75
2022/09/25 08:52:03;;;;;;;4.38;0.60;;;14.30;99.90;;;;;;4971727;28;20034;-75
2022/09/25 08:54:31;;;;;;;2.38;0.40;;;14.40;99.90;;;;;;4970833;28;20085;-75
2022/09/25 08:57:10;;;;;;;5.63;0.60;;;14.40;99.90;;;;;;4972373;28;20046;-75
2022/09/25 08:59:39;;;;;;;1.73;0.50;;;14.50;99.90;;;;;;4972481;28;20458;-75
2022/09/25 09:02:18;;;;;;;5.60;0.50;;;14.60;99.90;;;;;;4972196;28;20034;-75
2022/09/25 09:04:51;;;;;;;4.90;0.32;;;14.70;99.90;;;;;;4971051;28;20045;-75
2022/09/25 09:07:39;;;;;;;9.95;0.80;;;14.70;99.90;;;;;;4972170;28;20179;-75
2022/09/25 09:10:49;;;;;;;3.28;0.30;;;14.90;99.90;;;;;;4971488;28;20035;-75
2022/09/25 09:13:44;;;;;;;4.55;0.52;;;15.00;99.90;;;;;;4971512;28;20507;-74
2022/09/25 09:16:20;;;;;;;2.67;0.30;;;15.00;99.90;;;;;;4970929;28;20038;-75
2022/09/25 09:18:45;;;;;;;7.70;0.30;;;15.00;99.90;;;;;;4975962;28;20033;-75
2022/09/25 09:21:21;;;;;;;3.33;0.30;;;15.10;99.90;;;;;;4974362;28;20511;-75
2022/09/25 09:24:05;;;;;;;3.42;0.30;;;15.20;99.90;;;;;;4975575;28;20018;-75
2022/09/25 09:26:36;;;;;;;4.25;0.40;;;15.30;99.90;;;;;;4975353;28;20106;-75
2022/09/25 09:29:39;;;;;;;6.88;0.40;;;15.50;99.90;;;;;;4976002;28;20026;-75
2022/09/25 09:32:42;;;;;;;2.75;0.22;;;15.50;99.90;;;;;;4974763;28;20030;-75
2022/09/25 09:35:43;;;;;;;3.05;0.20;;;15.50;99.90;;;;;;4975268;28;20058;-75
2022/09/25 09:38:39;;;;;;;3.50;0.22;;;15.50;99.90;;;;;;4975321;28;20031;-75
2022/09/25 09:41:27;;;;;;;3.28;0.17;;;15.50;99.90;;;;;;4975631;28;20479;-75
2022/09/25 09:44:17;;;;;;;3.08;0.38;;;15.40;99.90;;;;;;4975063;28;20027;-75
2022/09/25 09:46:46;;;;;;;3.00;0.20;;;15.30;99.90;;;;;;4973690;28;20109;-75
2022/09/25 09:49:21;;;;;;;2.63;0.40;;;15.40;99.90;;;;;;4974915;28;20880;-75
2022/09/25 09:52:11;;;;;;;2.65;0.20;;;15.50;99.90;;;;;;4975375;28;20062;-75
2022/09/25 09:54:42;;;;;;;1.65;0.30;;;15.60;99.90;;;;;;4975134;28;20027;-75
2022/09/25 09:57:24;;;;;;;1.90;0.20;;;15.70;99.90;;;;;;4975196;28;20391;-75
2022/09/25 09:59:58;;;;;;;2.72;0.40;;;15.80;99.90;;;;;;4975470;28;20026;-75
2022/09/25 10:02:40;;;;;;;2.40;0.20;;;15.90;99.90;;;;;;4972910;28;20019;-75
2022/09/25 10:05:18;;;;;;;3.33;0.30;;;16.00;99.90;;;;;;4989120;28;20035;-75
2022/09/25 10:07:46;;;;;;;1.05;0.10;;;16.00;99.90;;;;;;4989797;28;20058;-75
2022/09/25 10:10:15;;;;;;;4.20;0.20;;;16.00;99.90;;;;;;4974553;28;20565;-75
2022/09/25 10:12:50;;;;;;;2.35;0.20;;;16.00;99.90;;;;;;4973600;28;20030;-75
2022/09/25 10:15:43;;;;;;;1.77;0.15;;;16.10;99.90;;;;;;4970690;28;20411;-75
2022/09/25 10:18:09;;;;;;;2.28;0.10;;;16.00;99.90;;;;;;4972505;28;20039;-76
2022/09/25 10:20:41;;;;;;;3.38;0.20;;;16.00;99.90;;;;;;4974625;28;20043;-75
2022/09/25 10:23:34;;;;;;;2.53;0.20;;;15.90;99.90;;;;;;4974997;28;20051;-76
2022/09/25 10:26:00;;;;;;;;;;;16.10;99.90;;;;;;4975290;28;20539;-75
2022/09/25 10:28:27;;;;;;;2.55;0.20;;;16.20;99.90;;;;;;4972346;28;19988;-75
2022/09/25 10:30:54;;;;;;;3.03;0.30;;;16.30;99.90;;;;;;4973915;28;20022;-75
2022/09/25 10:33:24;;;;;;;3.40;0.20;;;16.20;99.90;;;;;;4973362;28;20158;-75
2022/09/25 10:35:53;;;;;;;4.80;0.20;;;16.30;99.90;;;;;;4974576;28;20058;-75
2022/09/25 10:38:57;;;;;;;3.55;0.20;;;16.40;99.90;;;;;;4974339;28;20479;-75
2022/09/25 10:41:24;;;;;;;3.88;0.20;;;16.60;99.90;;;;;;4914337;29;20032;-75
2022/09/25 10:44:01;;;;;;;2.67;0.20;;;16.80;99.90;;;;;;4923009;29;20047;-75
2022/09/25 10:52:16;;;;;;;2.78;0.20;;;17.10;99.90;;;;;;4974246;28;20038;-75
2022/09/25 10:54:41;;;;;;;1.58;0.30;;;17.10;99.90;;;;;;4989358;28;20486;-75
2022/09/25 10:57:32;;;;;;;2.28;0.10;;;17.00;99.90;;;;;;4974183;28;20111;-75
2022/09/25 10:59:59;;;;;;;1.60;0.20;;;17.00;99.90;;;;;;4972079;28;20065;-75
2022/09/25 11:02:38;;;;;;;1.92;0.30;;;17.10;99.90;;;;;;4973690;28;20026;-75
2022/09/25 11:05:07;;;;;;;4.25;0.30;;;17.30;99.90;;;;;;4988891;28;20487;-74
2022/09/25 11:07:33;;;;;;;3.17;0.65;;;17.30;99.90;;;;;;4974299;28;20023;-75
2022/09/25 11:09:59;;;;;;;4.15;0.60;;;17.10;99.90;;;;;;4973822;28;20372;-75
2022/09/25 11:12:28;;;;;;;4.28;0.40;;;16.90;99.90;;;;;;4988459;28;20058;-75
2022/09/25 11:14:57;;;;;;;1.77;0.30;;;16.70;99.90;;;;;;4970129;28;20034;-75
2022/09/25 11:17:31;;;;;;;3.08;0.20;;;16.50;99.90;;;;;;4971325;28;20046;-75
2022/09/25 11:20:28;;;;;;;1.33;0.15;;;16.50;99.90;;;;;;4973722;28;20047;-74
2022/09/25 11:23:13;;;;;;;2.63;0.50;;;16.50;99.90;;;;;;4973013;28;20030;-75
2022/09/25 11:25:57;;;;;;;3.35;0.20;;;16.50;99.90;;;;;;4972610;28;20058;-75
2022/09/25 11:28:48;;;;;;;1.40;0.13;;;16.60;99.90;;;;;;4973477;28;20073;-74
2022/09/25 11:31:28;;;;;;;0.82;0.17;;;16.80;99.90;;;;;;4972075;28;20034;-74
2022/09/25 11:34:17;;;;;;;2.05;0.10;;;16.80;99.90;;;;;;4964772;28;20078;-75
2022/09/25 11:36:54;;;;;;;1.83;0.20;;;16.90;99.90;;;;;;4972281;28;20125;-75
2022/09/25 11:42:32;;;;;;;2.90;0.20;;;16.90;99.90;;;;;;4973423;28;20050;-75
2022/09/25 11:45:14;;;;;;;2.15;0.13;;;17.00;99.90;;;;;;4973458;28;20566;-74
2022/09/25 11:47:44;;;;;;;;;;;17.00;99.90;;;;;;4972161;28;20035;-74
2022/09/25 11:50:16;;;;;;;3.40;0.10;;;17.00;99.90;;;;;;4967159;28;20368;-75
2022/09/25 11:53:03;;;;;;;1.83;0.10;;;17.10;99.90;;;;;;4973214;28;20054;-74
2022/09/25 11:55:55;;;;;;;1.40;0.20;;;17.20;99.80;;;;;;4972838;28;20106;-75
2022/09/25 11:58:55;;;;;;;1.40;0.10;;;17.30;99.70;;;;;;4972595;28;20080;-75
2022/09/25 12:01:32;;;;;;;1.38;0.10;;;17.40;99.10;;;;;;4971507;28;20019;-75
2022/09/25 12:04:13;;;;;;;2.30;0.10;;;17.40;98.80;;;;;;4970081;28;20090;-74
2022/09/25 12:06:53;;;;;;;3.17;0.35;;;17.50;98.40;;;;;;4972075;28;20518;-74
2022/09/25 12:09:43;;;;;;;1.60;0.03;;;17.50;98.20;;;;;;4972450;28;20019;-75
2022/09/25 12:12:27;;;;;;;1.27;0.10;;;17.60;98.20;;;;;;4968339;28;20047;-74
2022/09/25 12:15:16;;;;;;;1.13;0.10;;;17.70;97.80;;;;;;4972909;28;20410;-75
2022/09/25 12:18:00;;;;;;;2.78;0.20;;;17.80;97.60;;;;;;4970687;28;20134;-75
2022/09/25 12:20:29;;;;;;;2.03;0.10;;;17.90;97.40;;;;;;4971910;28;20047;-74
2022/09/25 12:23:13;;;;;;;1.58;0.10;;;17.90;97.60;;;;;;4972381;28;20513;-74
2022/09/25 12:26:07;;;;;;;1.55;0.10;;;18.00;97.80;;;;;;4970921;28;20027;-74
2022/09/25 12:29:09;;;;;;;2.33;0.10;;;18.10;97.80;;;;;;4972202;28;20029;-75
2022/09/25 12:31:54;;;;;;;2.25;0.20;;;18.20;97.90;;;;;;4970397;28;20035;-75
2022/09/25 12:34:48;;;;;;;3.55;0.20;;;18.30;98.00;;;;;;4971346;28;20035;-74
2022/09/25 12:37:42;;;;;;;6.25;0.10;;;18.30;98.00;;;;;;4972173;28;20121;-74
2022/09/25 12:40:26;;;;;;;1.48;0.10;;;18.20;97.80;;;;;;4971412;28;20425;-74
2022/09/25 12:43:13;;;;;;;2.50;0.20;;;18.00;97.50;;;;;;4972391;28;20046;-74
2022/09/25 12:45:51;;;;;;;3.00;0.20;;;17.90;97.90;;;;;;4972357;28;20042;-75
2022/09/25 12:48:29;;;;;;;1.83;0.38;;;18.00;98.10;;;;;;4970440;28;20114;-75
2022/09/25 12:51:28;;;;;;;1.00;0.10;;;17.90;97.70;;;;;;4969308;28;20127;-74
2022/09/25 12:53:59;;;;;;;1.60;0.10;;;17.90;97.30;;;;;;4967772;28;20031;-74
2022/09/25 12:56:32;;;;;;;1.02;0.10;;;18.00;97.00;;;;;;4970530;28;20142;-75
2022/09/25 12:59:30;;;;;;;1.70;0.10;;;18.00;96.60;;;;;;4972140;28;20085;-75
2022/09/25 13:02:12;;;;;;;1.77;0.10;;;18.00;96.30;;;;;;4970032;28;20038;-75
2022/09/25 13:05:01;;;;;;;0.68;0.00;;;18.00;96.40;;;;;;4970474;28;20039;-74
2022/09/25 13:07:35;;;;;;;0.95;0.10;;;18.10;96.40;;;;;;4968901;28;20102;-74
2022/09/25 13:10:25;;;;;;;3.35;0.32;;;18.20;96.30;;;;;;4972013;28;20387;-75
2022/09/25 13:12:55;;;;;;;1.17;0.10;;;18.40;96.30;;;;;;4961177;28;20039;-75
2022/09/25 13:15:25;;;;;;;1.48;0.10;;;18.70;96.40;;;;;;4969028;28;20023;-74
2022/09/25 13:17:50;;;;;;;3.05;0.20;;;18.80;95.90;;;;;;4969536;28;20042;-75
2022/09/25 13:20:32;;;;;;;3.67;0.20;;;18.90;95.20;;;;;;4970059;28;20042;-75
2022/09/25 13:23:03;;;;;;;3.03;0.10;;;19.00;95.30;;;;;;4972266;28;20033;-75
2022/09/25 13:25:39;;;;;;;1.25;0.10;;;19.00;93.90;;;;;;4971630;28;20365;-75
2022/09/25 13:28:06;;;;;;;1.70;0.10;;;19.00;94.40;;;;;;4969712;28;20042;-75
2022/09/25 13:30:32;;;;;;;2.22;0.10;;;19.10;93.60;;;;;;4967187;28;20077;-75
2022/09/25 13:33:02;;;;;;;0.98;0.10;;;19.00;93.50;;;;;;4972310;28;20058;-75
2022/09/25 13:35:31;;;;;;;2.67;0.20;;;19.00;93.80;;;;;;4971585;28;20026;-75
2022/09/25 13:40:41;;;;;;;2.05;0.10;;;19.10;94.00;;;;;;4972255;28;20039;-75
2022/09/25 13:41:13;;;;;;;2.55;0.10;;;19.30;94.00;;;;;;4953345;28;20031;-74
2022/09/25 13:43:39;;;;;;;1.77;0.17;;;19.60;93.90;;;;;;4969349;28;20034;-75